sensor_id;sensor_type;location;lat;lon;timestamp;P1;durP1;ratioP1;P2;durP2;ratioP2
10823;SDS011;39116;59.332;18.034;2023-02-08T00:01:53;17.87;;;3.57;;
10823;SDS011;39116;59.332;18.034;2023-02-08T00:04:15;12.97;;;4.17;;
10823;SDS011;39116;59.332;18.034;2023-02-08T00:06:39;17.63;;;4.23;;
10823;SDS011;39116;59.332;18.034;2023-02-08T00:09:01;15.70;;;3.87;;
10823;SDS011;39116;59.332;18.034;2023-02-08T00:11:22;10.88;;;4.32;;
10823;SDS011;39116;59.332;18.034;2023-02-08T00:13:45;12.17;;;3.70;;
10823;SDS011;39116;59.332;18.034;2023-02-08T00:16:07;18.17;;;4.40;;
10823;SDS011;39116;59.332;18.034;2023-02-08T00:18:30;16.17;;;4.07;;
10823;SDS011;39116;59.332;18.034;2023-02-08T00:20:52;16.98;;;4.13;;
10823;SDS011;39116;59.332;18.034;2023-02-08T00:23:16;14.20;;;4.20;;
10823;SDS011;39116;59.332;18.034;2023-02-08T00:25:39;14.40;;;3.67;;
10823;SDS011;39116;59.332;18.034;2023-02-08T00:28:02;13.50;;;4.00;;
10823;SDS011;39116;59.332;18.034;2023-02-08T00:30:24;20.63;;;4.67;;
10823;SDS011;39116;59.332;18.034;2023-02-08T00:32:46;16.92;;;4.47;;
10823;SDS011;39116;59.332;18.034;2023-02-08T00:35:08;17.43;;;4.27;;
10823;SDS011;39116;59.332;18.034;2023-02-08T00:37:30;17.03;;;5.10;;
10823;SDS011;39116;59.332;18.034;2023-02-08T00:39:54;18.33;;;4.67;;
10823;SDS011;39116;59.332;18.034;2023-02-08T00:42:17;18.37;;;4.47;;
10823;SDS011;39116;59.332;18.034;2023-02-08T00:44:39;16.38;;;4.60;;
10823;SDS011;39116;59.332;18.034;2023-02-08T00:47:01;22.50;;;5.10;;
10823;SDS011;39116;59.332;18.034;2023-02-08T00:49:23;15.05;;;4.78;;
10823;SDS011;39116;59.332;18.034;2023-02-08T00:51:45;19.43;;;4.70;;
10823;SDS011;39116;59.332;18.034;2023-02-08T00:54:10;15.53;;;4.60;;
10823;SDS011;39116;59.332;18.034;2023-02-08T00:56:36;21.45;;;4.95;;
10823;SDS011;39116;59.332;18.034;2023-02-08T00:58:58;18.87;;;5.10;;
10823;SDS011;39116;59.332;18.034;2023-02-08T01:01:19;18.77;;;4.60;;
10823;SDS011;39116;59.332;18.034;2023-02-08T01:03:42;17.97;;;5.83;;
10823;SDS011;39116;59.332;18.034;2023-02-08T01:06:05;14.57;;;4.87;;
10823;SDS011;39116;59.332;18.034;2023-02-08T01:08:29;18.43;;;5.27;;
10823;SDS011;39116;59.332;18.034;2023-02-08T01:10:51;13.77;;;5.22;;
10823;SDS011;39116;59.332;18.034;2023-02-08T01:13:14;21.40;;;6.13;;
10823;SDS011;39116;59.332;18.034;2023-02-08T01:15:36;16.90;;;5.13;;
10823;SDS011;39116;59.332;18.034;2023-02-08T01:17:58;16.13;;;5.15;;
10823;SDS011;39116;59.332;18.034;2023-02-08T01:20:20;17.45;;;5.07;;
10823;SDS011;39116;59.332;18.034;2023-02-08T01:22:42;25.80;;;5.90;;
10823;SDS011;39116;59.332;18.034;2023-02-08T01:25:04;18.93;;;5.20;;
10823;SDS011;39116;59.332;18.034;2023-02-08T01:27:26;16.67;;;5.00;;
10823;SDS011;39116;59.332;18.034;2023-02-08T01:29:50;19.27;;;5.70;;
10823;SDS011;39116;59.332;18.034;2023-02-08T01:32:12;18.63;;;6.20;;
10823;SDS011;39116;59.332;18.034;2023-02-08T01:34:35;17.10;;;5.47;;
10823;SDS011;39116;59.332;18.034;2023-02-08T01:36:57;23.10;;;6.40;;
10823;SDS011;39116;59.332;18.034;2023-02-08T01:39:19;22.05;;;6.00;;
10823;SDS011;39116;59.332;18.034;2023-02-08T01:41:41;32.13;;;7.00;;
10823;SDS011;39116;59.332;18.034;2023-02-08T01:44:07;23.53;;;7.10;;
10823;SDS011;39116;59.332;18.034;2023-02-08T01:46:51;26.27;;;6.93;;
10823;SDS011;39116;59.332;18.034;2023-02-08T01:49:14;33.53;;;8.07;;
10823;SDS011;39116;59.332;18.034;2023-02-08T01:51:40;28.77;;;7.47;;
10823;SDS011;39116;59.332;18.034;2023-02-08T01:54:06;27.67;;;7.53;;
10823;SDS011;39116;59.332;18.034;2023-02-08T01:56:30;28.43;;;7.47;;
10823;SDS011;39116;59.332;18.034;2023-02-08T01:58:56;31.33;;;8.83;;
10823;SDS011;39116;59.332;18.034;2023-02-08T02:01:21;25.37;;;7.37;;
10823;SDS011;39116;59.332;18.034;2023-02-08T02:03:45;29.73;;;8.07;;
10823;SDS011;39116;59.332;18.034;2023-02-08T02:06:08;26.05;;;7.88;;
10823;SDS011;39116;59.332;18.034;2023-02-08T02:08:33;22.27;;;7.97;;
10823;SDS011;39116;59.332;18.034;2023-02-08T02:10:55;25.37;;;7.57;;
10823;SDS011;39116;59.332;18.034;2023-02-08T02:13:17;28.90;;;8.93;;
10823;SDS011;39116;59.332;18.034;2023-02-08T02:15:41;26.25;;;7.65;;
10823;SDS011;39116;59.332;18.034;2023-02-08T02:18:05;28.77;;;7.93;;
10823;SDS011;39116;59.332;18.034;2023-02-08T02:20:34;26.17;;;8.00;;
10823;SDS011;39116;59.332;18.034;2023-02-08T02:32:11;23.00;;;8.30;;
10823;SDS011;39116;59.332;18.034;2023-02-08T02:34:44;31.98;;;8.90;;
10823;SDS011;39116;59.332;18.034;2023-02-08T02:37:12;35.60;;;8.43;;
10823;SDS011;39116;59.332;18.034;2023-02-08T02:39:51;31.98;;;8.07;;
10823;SDS011;39116;59.332;18.034;2023-02-08T02:42:22;26.52;;;8.90;;
10823;SDS011;39116;59.332;18.034;2023-02-08T02:45:09;25.17;;;8.07;;
10823;SDS011;39116;59.332;18.034;2023-02-08T02:47:40;31.83;;;8.45;;
10823;SDS011;39116;59.332;18.034;2023-02-08T02:50:09;30.03;;;8.60;;
10823;SDS011;39116;59.332;18.034;2023-02-08T02:52:38;32.08;;;8.95;;
10823;SDS011;39116;59.332;18.034;2023-02-08T02:55:06;33.28;;;8.95;;
10823;SDS011;39116;59.332;18.034;2023-02-08T02:57:31;31.15;;;9.73;;
10823;SDS011;39116;59.332;18.034;2023-02-08T02:59:56;31.80;;;9.73;;
10823;SDS011;39116;59.332;18.034;2023-02-08T03:02:18;34.27;;;9.37;;
10823;SDS011;39116;59.332;18.034;2023-02-08T03:04:53;29.42;;;9.43;;
10823;SDS011;39116;59.332;18.034;2023-02-08T03:07:19;30.53;;;9.53;;
10823;SDS011;39116;59.332;18.034;2023-02-08T03:09:56;36.58;;;9.85;;
10823;SDS011;39116;59.332;18.034;2023-02-08T03:12:29;30.57;;;9.47;;
10823;SDS011;39116;59.332;18.034;2023-02-08T03:15:02;36.40;;;10.07;;
10823;SDS011;39116;59.332;18.034;2023-02-08T03:17:39;28.13;;;9.48;;
10823;SDS011;39116;59.332;18.034;2023-02-08T03:20:14;30.97;;;10.13;;
10823;SDS011;39116;59.332;18.034;2023-02-08T03:22:42;22.20;;;9.38;;
10823;SDS011;39116;59.332;18.034;2023-02-08T03:25:10;26.10;;;9.38;;
10823;SDS011;39116;59.332;18.034;2023-02-08T03:27:39;30.45;;;9.05;;
10823;SDS011;39116;59.332;18.034;2023-02-08T03:30:11;22.50;;;9.80;;
10823;SDS011;39116;59.332;18.034;2023-02-08T03:32:39;26.27;;;9.77;;
10823;SDS011;39116;59.332;18.034;2023-02-08T03:35:06;25.02;;;8.88;;
10823;SDS011;39116;59.332;18.034;2023-02-08T03:37:36;26.10;;;8.43;;
10823;SDS011;39116;59.332;18.034;2023-02-08T03:40:04;28.60;;;8.27;;
10823;SDS011;39116;59.332;18.034;2023-02-08T03:42:29;25.85;;;9.75;;
10823;SDS011;39116;59.332;18.034;2023-02-08T03:44:53;22.02;;;7.85;;
10823;SDS011;39116;59.332;18.034;2023-02-08T03:47:21;21.42;;;9.10;;
10823;SDS011;39116;59.332;18.034;2023-02-08T03:49:45;27.73;;;8.52;;
10823;SDS011;39116;59.332;18.034;2023-02-08T03:52:11;25.10;;;8.23;;
10823;SDS011;39116;59.332;18.034;2023-02-08T03:54:34;23.20;;;9.07;;
10823;SDS011;39116;59.332;18.034;2023-02-08T03:57:02;20.00;;;8.50;;
10823;SDS011;39116;59.332;18.034;2023-02-08T03:59:28;23.38;;;9.05;;
10823;SDS011;39116;59.332;18.034;2023-02-08T04:01:55;22.63;;;9.05;;
10823;SDS011;39116;59.332;18.034;2023-02-08T04:04:18;19.88;;;8.07;;
10823;SDS011;39116;59.332;18.034;2023-02-08T04:06:41;25.67;;;9.43;;
10823;SDS011;39116;59.332;18.034;2023-02-08T04:09:03;18.83;;;8.52;;
10823;SDS011;39116;59.332;18.034;2023-02-08T04:11:27;26.08;;;8.57;;
10823;SDS011;39116;59.332;18.034;2023-02-08T04:13:49;27.77;;;8.85;;
10823;SDS011;39116;59.332;18.034;2023-02-08T04:16:11;26.60;;;9.48;;
10823;SDS011;39116;59.332;18.034;2023-02-08T04:18:33;26.67;;;8.80;;
10823;SDS011;39116;59.332;18.034;2023-02-08T04:20:55;30.43;;;9.50;;
10823;SDS011;39116;59.332;18.034;2023-02-08T04:23:17;30.05;;;9.25;;
10823;SDS011;39116;59.332;18.034;2023-02-08T04:25:39;21.38;;;8.80;;
10823;SDS011;39116;59.332;18.034;2023-02-08T04:28:02;29.77;;;9.48;;
10823;SDS011;39116;59.332;18.034;2023-02-08T04:30:24;26.80;;;9.27;;
10823;SDS011;39116;59.332;18.034;2023-02-08T04:32:46;27.33;;;9.73;;
10823;SDS011;39116;59.332;18.034;2023-02-08T04:35:08;27.50;;;9.18;;
10823;SDS011;39116;59.332;18.034;2023-02-08T04:37:30;21.63;;;9.48;;
10823;SDS011;39116;59.332;18.034;2023-02-08T04:39:52;21.63;;;9.27;;
10823;SDS011;39116;59.332;18.034;2023-02-08T04:42:14;23.08;;;8.63;;
10823;SDS011;39116;59.332;18.034;2023-02-08T04:44:37;30.60;;;9.53;;
10823;SDS011;39116;59.332;18.034;2023-02-08T04:46:59;25.92;;;9.32;;
10823;SDS011;39116;59.332;18.034;2023-02-08T04:49:22;25.20;;;10.13;;
10823;SDS011;39116;59.332;18.034;2023-02-08T04:51:44;22.77;;;9.52;;
10823;SDS011;39116;59.332;18.034;2023-02-08T04:54:06;24.48;;;9.32;;
10823;SDS011;39116;59.332;18.034;2023-02-08T04:56:28;22.45;;;8.45;;
10823;SDS011;39116;59.332;18.034;2023-02-08T04:58:50;25.50;;;9.07;;
10823;SDS011;39116;59.332;18.034;2023-02-08T05:01:13;25.92;;;9.50;;
10823;SDS011;39116;59.332;18.034;2023-02-08T05:03:36;19.40;;;8.18;;
10823;SDS011;39116;59.332;18.034;2023-02-08T05:05:58;21.63;;;9.57;;
10823;SDS011;39116;59.332;18.034;2023-02-08T05:08:21;24.38;;;9.25;;
10823;SDS011;39116;59.332;18.034;2023-02-08T05:10:43;21.45;;;9.30;;
10823;SDS011;39116;59.332;18.034;2023-02-08T05:13:06;23.33;;;8.85;;
10823;SDS011;39116;59.332;18.034;2023-02-08T05:15:27;26.25;;;9.80;;
10823;SDS011;39116;59.332;18.034;2023-02-08T05:17:51;20.70;;;8.18;;
10823;SDS011;39116;59.332;18.034;2023-02-08T05:20:13;21.07;;;9.37;;
10823;SDS011;39116;59.332;18.034;2023-02-08T05:22:35;24.55;;;10.13;;
10823;SDS011;39116;59.332;18.034;2023-02-08T05:24:57;24.77;;;9.60;;
10823;SDS011;39116;59.332;18.034;2023-02-08T05:27:19;20.63;;;9.73;;
10823;SDS011;39116;59.332;18.034;2023-02-08T05:29:41;29.15;;;10.20;;
10823;SDS011;39116;59.332;18.034;2023-02-08T05:32:03;23.95;;;10.23;;
10823;SDS011;39116;59.332;18.034;2023-02-08T05:34:27;20.40;;;10.67;;
10823;SDS011;39116;59.332;18.034;2023-02-08T05:36:49;20.55;;;9.75;;
10823;SDS011;39116;59.332;18.034;2023-02-08T05:39:11;26.50;;;10.60;;
10823;SDS011;39116;59.332;18.034;2023-02-08T05:41:33;28.40;;;10.23;;
10823;SDS011;39116;59.332;18.034;2023-02-08T05:43:55;24.73;;;10.63;;
10823;SDS011;39116;59.332;18.034;2023-02-08T05:46:17;20.95;;;10.45;;
10823;SDS011;39116;59.332;18.034;2023-02-08T05:48:39;23.70;;;10.77;;
10823;SDS011;39116;59.332;18.034;2023-02-08T05:51:02;25.92;;;11.05;;
10823;SDS011;39116;59.332;18.034;2023-02-08T05:53:24;25.13;;;10.10;;
10823;SDS011;39116;59.332;18.034;2023-02-08T05:55:46;22.10;;;10.38;;
10823;SDS011;39116;59.332;18.034;2023-02-08T05:58:08;25.20;;;10.20;;
10823;SDS011;39116;59.332;18.034;2023-02-08T06:00:30;19.73;;;11.23;;
10823;SDS011;39116;59.332;18.034;2023-02-08T06:02:52;24.65;;;10.63;;
10823;SDS011;39116;59.332;18.034;2023-02-08T06:05:14;27.95;;;10.93;;
10823;SDS011;39116;59.332;18.034;2023-02-08T06:07:38;24.60;;;11.50;;
10823;SDS011;39116;59.332;18.034;2023-02-08T06:09:59;30.15;;;11.90;;
10823;SDS011;39116;59.332;18.034;2023-02-08T06:12:21;26.10;;;10.35;;
10823;SDS011;39116;59.332;18.034;2023-02-08T06:14:44;21.67;;;10.52;;
10823;SDS011;39116;59.332;18.034;2023-02-08T06:17:06;23.92;;;10.45;;
10823;SDS011;39116;59.332;18.034;2023-02-08T06:19:28;23.87;;;11.00;;
10823;SDS011;39116;59.332;18.034;2023-02-08T06:21:50;24.38;;;10.73;;
10823;SDS011;39116;59.332;18.034;2023-02-08T06:24:14;29.20;;;10.90;;
10823;SDS011;39116;59.332;18.034;2023-02-08T06:26:36;23.25;;;10.55;;
10823;SDS011;39116;59.332;18.034;2023-02-08T06:28:58;32.47;;;12.77;;
10823;SDS011;39116;59.332;18.034;2023-02-08T06:31:21;34.90;;;12.02;;
10823;SDS011;39116;59.332;18.034;2023-02-08T06:33:43;27.95;;;12.77;;
10823;SDS011;39116;59.332;18.034;2023-02-08T06:36:05;25.10;;;11.30;;
10823;SDS011;39116;59.332;18.034;2023-02-08T06:38:27;22.58;;;11.20;;
10823;SDS011;39116;59.332;18.034;2023-02-08T06:40:50;34.37;;;12.23;;
10823;SDS011;39116;59.332;18.034;2023-02-08T06:43:13;24.70;;;11.85;;
10823;SDS011;39116;59.332;18.034;2023-02-08T06:45:35;27.60;;;12.68;;
10823;SDS011;39116;59.332;18.034;2023-02-08T06:47:57;31.40;;;12.13;;
10823;SDS011;39116;59.332;18.034;2023-02-08T06:50:19;30.40;;;12.07;;
10823;SDS011;39116;59.332;18.034;2023-02-08T06:52:40;26.80;;;11.82;;
10823;SDS011;39116;59.332;18.034;2023-02-08T06:55:03;27.05;;;11.88;;
10823;SDS011;39116;59.332;18.034;2023-02-08T06:57:26;41.35;;;11.73;;
10823;SDS011;39116;59.332;18.034;2023-02-08T06:59:48;23.70;;;11.32;;
10823;SDS011;39116;59.332;18.034;2023-02-08T07:02:11;26.67;;;11.38;;
10823;SDS011;39116;59.332;18.034;2023-02-08T07:04:33;26.90;;;11.20;;
10823;SDS011;39116;59.332;18.034;2023-02-08T07:06:56;25.05;;;11.10;;
10823;SDS011;39116;59.332;18.034;2023-02-08T07:09:18;27.33;;;12.00;;
10823;SDS011;39116;59.332;18.034;2023-02-08T07:11:40;28.75;;;10.80;;
10823;SDS011;39116;59.332;18.034;2023-02-08T07:14:03;23.65;;;10.70;;
10823;SDS011;39116;59.332;18.034;2023-02-08T07:16:25;25.63;;;11.52;;
10823;SDS011;39116;59.332;18.034;2023-02-08T07:18:47;31.42;;;11.48;;
10823;SDS011;39116;59.332;18.034;2023-02-08T07:21:09;23.55;;;10.45;;
10823;SDS011;39116;59.332;18.034;2023-02-08T07:23:31;26.02;;;10.48;;
10823;SDS011;39116;59.332;18.034;2023-02-08T07:25:57;20.98;;;9.32;;
10823;SDS011;39116;59.332;18.034;2023-02-08T07:28:19;23.02;;;10.55;;
10823;SDS011;39116;59.332;18.034;2023-02-08T07:30:42;27.90;;;10.60;;
10823;SDS011;39116;59.332;18.034;2023-02-08T07:33:04;19.65;;;10.02;;
10823;SDS011;39116;59.332;18.034;2023-02-08T07:35:26;23.52;;;9.68;;
10823;SDS011;39116;59.332;18.034;2023-02-08T07:37:48;17.10;;;9.45;;
10823;SDS011;39116;59.332;18.034;2023-02-08T07:40:10;20.02;;;9.15;;
10823;SDS011;39116;59.332;18.034;2023-02-08T07:42:32;27.17;;;9.80;;
10823;SDS011;39116;59.332;18.034;2023-02-08T07:44:54;27.10;;;10.50;;
10823;SDS011;39116;59.332;18.034;2023-02-08T07:47:17;22.15;;;9.32;;
10823;SDS011;39116;59.332;18.034;2023-02-08T07:49:39;24.15;;;9.25;;
10823;SDS011;39116;59.332;18.034;2023-02-08T07:52:01;27.92;;;9.65;;
10823;SDS011;39116;59.332;18.034;2023-02-08T07:54:24;23.60;;;9.98;;
10823;SDS011;39116;59.332;18.034;2023-02-08T07:56:45;21.07;;;9.27;;
10823;SDS011;39116;59.332;18.034;2023-02-08T07:59:07;23.65;;;8.73;;
10823;SDS011;39116;59.332;18.034;2023-02-08T08:01:29;22.15;;;8.48;;
10823;SDS011;39116;59.332;18.034;2023-02-08T08:03:53;24.67;;;8.53;;
10823;SDS011;39116;59.332;18.034;2023-02-08T08:06:15;25.97;;;8.27;;
10823;SDS011;39116;59.332;18.034;2023-02-08T08:08:37;21.73;;;8.37;;
10823;SDS011;39116;59.332;18.034;2023-02-08T08:11:00;22.42;;;7.65;;
10823;SDS011;39116;59.332;18.034;2023-02-08T08:13:22;18.63;;;8.30;;
10823;SDS011;39116;59.332;18.034;2023-02-08T08:15:45;18.50;;;7.82;;
10823;SDS011;39116;59.332;18.034;2023-02-08T08:18:07;12.95;;;7.13;;
10823;SDS011;39116;59.332;18.034;2023-02-08T08:20:30;17.83;;;7.38;;
10823;SDS011;39116;59.332;18.034;2023-02-08T08:22:52;20.02;;;7.32;;
10823;SDS011;39116;59.332;18.034;2023-02-08T08:25:14;19.67;;;7.45;;
10823;SDS011;39116;59.332;18.034;2023-02-08T08:27:37;18.13;;;6.70;;
10823;SDS011;39116;59.332;18.034;2023-02-08T08:29:59;13.50;;;6.85;;
10823;SDS011;39116;59.332;18.034;2023-02-08T08:32:21;20.08;;;7.40;;
10823;SDS011;39116;59.332;18.034;2023-02-08T08:34:43;15.25;;;7.63;;
10823;SDS011;39116;59.332;18.034;2023-02-08T08:37:07;15.65;;;6.60;;
10823;SDS011;39116;59.332;18.034;2023-02-08T08:39:30;23.08;;;6.97;;
10823;SDS011;39116;59.332;18.034;2023-02-08T08:41:52;15.95;;;6.32;;
10823;SDS011;39116;59.332;18.034;2023-02-08T08:44:14;19.98;;;6.93;;
10823;SDS011;39116;59.332;18.034;2023-02-08T08:46:36;22.50;;;7.20;;
10823;SDS011;39116;59.332;18.034;2023-02-08T08:48:59;16.17;;;6.68;;
10823;SDS011;39116;59.332;18.034;2023-02-08T08:51:21;16.58;;;5.97;;
10823;SDS011;39116;59.332;18.034;2023-02-08T08:53:44;15.43;;;6.80;;
10823;SDS011;39116;59.332;18.034;2023-02-08T08:56:06;20.38;;;6.47;;
10823;SDS011;39116;59.332;18.034;2023-02-08T08:58:28;13.15;;;6.32;;
10823;SDS011;39116;59.332;18.034;2023-02-08T09:00:50;20.63;;;6.28;;
10823;SDS011;39116;59.332;18.034;2023-02-08T09:03:13;15.48;;;6.50;;
10823;SDS011;39116;59.332;18.034;2023-02-08T09:05:35;18.92;;;6.10;;
10823;SDS011;39116;59.332;18.034;2023-02-08T09:07:56;18.42;;;6.43;;
10823;SDS011;39116;59.332;18.034;2023-02-08T09:10:21;15.48;;;5.82;;
10823;SDS011;39116;59.332;18.034;2023-02-08T09:12:44;16.27;;;6.50;;
10823;SDS011;39116;59.332;18.034;2023-02-08T09:15:06;17.70;;;6.10;;
10823;SDS011;39116;59.332;18.034;2023-02-08T09:17:28;20.60;;;6.85;;
10823;SDS011;39116;59.332;18.034;2023-02-08T09:19:50;14.95;;;6.13;;
10823;SDS011;39116;59.332;18.034;2023-02-08T09:22:12;20.02;;;6.55;;
10823;SDS011;39116;59.332;18.034;2023-02-08T09:24:35;18.70;;;6.68;;
10823;SDS011;39116;59.332;18.034;2023-02-08T09:26:59;16.55;;;6.50;;
10823;SDS011;39116;59.332;18.034;2023-02-08T09:29:21;15.57;;;6.18;;
10823;SDS011;39116;59.332;18.034;2023-02-08T09:31:43;18.42;;;6.40;;
10823;SDS011;39116;59.332;18.034;2023-02-08T09:34:05;16.63;;;5.75;;
10823;SDS011;39116;59.332;18.034;2023-02-08T09:36:28;18.70;;;6.55;;
10823;SDS011;39116;59.332;18.034;2023-02-08T09:38:53;15.15;;;5.55;;
10823;SDS011;39116;59.332;18.034;2023-02-08T09:41:23;19.08;;;5.93;;
10823;SDS011;39116;59.332;18.034;2023-02-08T09:44:04;15.00;;;5.93;;
10823;SDS011;39116;59.332;18.034;2023-02-08T09:46:35;15.73;;;6.20;;
10823;SDS011;39116;59.332;18.034;2023-02-08T09:49:01;18.67;;;6.57;;
10823;SDS011;39116;59.332;18.034;2023-02-08T09:51:28;24.20;;;5.90;;
10823;SDS011;39116;59.332;18.034;2023-02-08T09:53:55;15.35;;;6.28;;
10823;SDS011;39116;59.332;18.034;2023-02-08T09:56:24;17.17;;;5.68;;
10823;SDS011;39116;59.332;18.034;2023-02-08T09:58:50;16.10;;;5.80;;
10823;SDS011;39116;59.332;18.034;2023-02-08T10:01:17;16.63;;;5.32;;
10823;SDS011;39116;59.332;18.034;2023-02-08T10:03:41;14.32;;;6.10;;
10823;SDS011;39116;59.332;18.034;2023-02-08T10:06:05;16.75;;;5.68;;
10823;SDS011;39116;59.332;18.034;2023-02-08T10:08:28;12.95;;;5.53;;
10823;SDS011;39116;59.332;18.034;2023-02-08T10:10:52;12.93;;;5.05;;
10823;SDS011;39116;59.332;18.034;2023-02-08T10:13:20;13.60;;;4.78;;
10823;SDS011;39116;59.332;18.034;2023-02-08T10:15:55;11.85;;;5.22;;
10823;SDS011;39116;59.332;18.034;2023-02-08T10:18:33;11.88;;;4.70;;
10823;SDS011;39116;59.332;18.034;2023-02-08T10:21:08;12.48;;;4.88;;
10823;SDS011;39116;59.332;18.034;2023-02-08T10:23:43;12.02;;;4.82;;
10823;SDS011;39116;59.332;18.034;2023-02-08T10:26:18;14.77;;;4.57;;
10823;SDS011;39116;59.332;18.034;2023-02-08T10:28:54;17.35;;;5.10;;
10823;SDS011;39116;59.332;18.034;2023-02-08T10:31:29;12.93;;;4.90;;
10823;SDS011;39116;59.332;18.034;2023-02-08T10:34:06;14.82;;;5.10;;
10823;SDS011;39116;59.332;18.034;2023-02-08T10:36:33;11.35;;;4.15;;
10823;SDS011;39116;59.332;18.034;2023-02-08T10:39:02;10.63;;;3.88;;
10823;SDS011;39116;59.332;18.034;2023-02-08T10:41:31;13.45;;;4.00;;
10823;SDS011;39116;59.332;18.034;2023-02-08T10:43:58;13.70;;;4.13;;
10823;SDS011;39116;59.332;18.034;2023-02-08T10:46:26;15.27;;;4.32;;
10823;SDS011;39116;59.332;18.034;2023-02-08T10:48:58;13.27;;;4.70;;
10823;SDS011;39116;59.332;18.034;2023-02-08T10:51:28;10.60;;;4.25;;
10823;SDS011;39116;59.332;18.034;2023-02-08T10:53:51;14.40;;;4.38;;
10823;SDS011;39116;59.332;18.034;2023-02-08T10:56:17;10.30;;;4.57;;
10823;SDS011;39116;59.332;18.034;2023-02-08T10:58:48;9.13;;;3.75;;
10823;SDS011;39116;59.332;18.034;2023-02-08T11:01:10;13.55;;;4.47;;
10823;SDS011;39116;59.332;18.034;2023-02-08T11:03:32;9.60;;;4.50;;
10823;SDS011;39116;59.332;18.034;2023-02-08T11:05:58;11.57;;;4.07;;
10823;SDS011;39116;59.332;18.034;2023-02-08T11:08:22;12.98;;;4.35;;
10823;SDS011;39116;59.332;18.034;2023-02-08T11:10:54;12.95;;;4.43;;
10823;SDS011;39116;59.332;18.034;2023-02-08T11:13:18;12.13;;;3.95;;
10823;SDS011;39116;59.332;18.034;2023-02-08T11:15:42;13.23;;;4.53;;
10823;SDS011;39116;59.332;18.034;2023-02-08T11:18:12;13.27;;;4.68;;
10823;SDS011;39116;59.332;18.034;2023-02-08T11:20:40;9.45;;;3.70;;
10823;SDS011;39116;59.332;18.034;2023-02-08T11:23:04;12.07;;;3.80;;
10823;SDS011;39116;59.332;18.034;2023-02-08T11:25:38;12.48;;;3.72;;
10823;SDS011;39116;59.332;18.034;2023-02-08T11:28:00;17.48;;;4.07;;
10823;SDS011;39116;59.332;18.034;2023-02-08T11:30:22;8.20;;;3.78;;
10823;SDS011;39116;59.332;18.034;2023-02-08T11:32:45;8.70;;;3.60;;
10823;SDS011;39116;59.332;18.034;2023-02-08T11:35:10;10.90;;;4.05;;
10823;SDS011;39116;59.332;18.034;2023-02-08T11:37:33;8.65;;;3.65;;
10823;SDS011;39116;59.332;18.034;2023-02-08T11:39:57;11.55;;;3.83;;
10823;SDS011;39116;59.332;18.034;2023-02-08T11:42:21;11.43;;;3.75;;
10823;SDS011;39116;59.332;18.034;2023-02-08T11:44:45;11.57;;;3.70;;
10823;SDS011;39116;59.332;18.034;2023-02-08T11:47:09;9.35;;;3.42;;
10823;SDS011;39116;59.332;18.034;2023-02-08T11:49:36;9.95;;;3.65;;
10823;SDS011;39116;59.332;18.034;2023-02-08T11:51:59;8.07;;;3.53;;
10823;SDS011;39116;59.332;18.034;2023-02-08T11:54:31;9.98;;;4.03;;
10823;SDS011;39116;59.332;18.034;2023-02-08T11:57:01;13.05;;;4.03;;
10823;SDS011;39116;59.332;18.034;2023-02-08T11:59:24;8.18;;;3.33;;
10823;SDS011;39116;59.332;18.034;2023-02-08T12:01:48;9.38;;;3.70;;
10823;SDS011;39116;59.332;18.034;2023-02-08T12:04:10;11.77;;;3.85;;
10823;SDS011;39116;59.332;18.034;2023-02-08T12:12:51;11.70;;;4.40;;
10823;SDS011;39116;59.332;18.034;2023-02-08T12:15:23;11.90;;;4.43;;
10823;SDS011;39116;59.332;18.034;2023-02-08T12:18:02;12.30;;;4.35;;
10823;SDS011;39116;59.332;18.034;2023-02-08T12:20:39;12.93;;;3.97;;
10823;SDS011;39116;59.332;18.034;2023-02-08T12:26:05;10.48;;;3.75;;
10823;SDS011;39116;59.332;18.034;2023-02-08T12:28:41;9.95;;;3.80;;
10823;SDS011;39116;59.332;18.034;2023-02-08T12:31:16;9.30;;;4.15;;
10823;SDS011;39116;59.332;18.034;2023-02-08T12:33:45;8.70;;;4.45;;
10823;SDS011;39116;59.332;18.034;2023-02-08T12:39:12;10.80;;;4.25;;
10823;SDS011;39116;59.332;18.034;2023-02-08T12:42:09;11.00;;;4.57;;
10823;SDS011;39116;59.332;18.034;2023-02-08T12:44:47;14.23;;;4.32;;
10823;SDS011;39116;59.332;18.034;2023-02-08T12:47:30;14.02;;;4.50;;
10823;SDS011;39116;59.332;18.034;2023-02-08T12:50:07;9.13;;;4.38;;
10823;SDS011;39116;59.332;18.034;2023-02-08T12:52:40;10.63;;;4.55;;
10823;SDS011;39116;59.332;18.034;2023-02-08T12:55:08;12.77;;;4.25;;
10823;SDS011;39116;59.332;18.034;2023-02-08T12:57:37;9.02;;;4.40;;
10823;SDS011;39116;59.332;18.034;2023-02-08T13:00:05;7.53;;;4.15;;
10823;SDS011;39116;59.332;18.034;2023-02-08T13:02:37;7.45;;;3.83;;
10823;SDS011;39116;59.332;18.034;2023-02-08T13:05:05;10.07;;;3.97;;
10823;SDS011;39116;59.332;18.034;2023-02-08T13:07:28;7.88;;;3.95;;
10823;SDS011;39116;59.332;18.034;2023-02-08T13:09:55;8.68;;;3.58;;
10823;SDS011;39116;59.332;18.034;2023-02-08T13:12:24;9.25;;;3.50;;
10823;SDS011;39116;59.332;18.034;2023-02-08T13:14:50;7.80;;;3.38;;
10823;SDS011;39116;59.332;18.034;2023-02-08T13:17:18;11.18;;;3.90;;
10823;SDS011;39116;59.332;18.034;2023-02-08T13:19:49;5.68;;;3.20;;
10823;SDS011;39116;59.332;18.034;2023-02-08T13:22:15;8.68;;;3.58;;
10823;SDS011;39116;59.332;18.034;2023-02-08T13:24:39;6.45;;;3.35;;
10823;SDS011;39116;59.332;18.034;2023-02-08T13:27:03;8.60;;;3.42;;
10823;SDS011;39116;59.332;18.034;2023-02-08T13:29:27;8.57;;;3.20;;
10823;SDS011;39116;59.332;18.034;2023-02-08T13:31:52;7.93;;;2.95;;
10823;SDS011;39116;59.332;18.034;2023-02-08T13:34:22;8.77;;;3.20;;
10823;SDS011;39116;59.332;18.034;2023-02-08T13:36:49;8.02;;;3.20;;
10823;SDS011;39116;59.332;18.034;2023-02-08T13:39:23;6.78;;;3.20;;
10823;SDS011;39116;59.332;18.034;2023-02-08T13:41:55;9.18;;;3.00;;
10823;SDS011;39116;59.332;18.034;2023-02-08T13:44:18;8.60;;;3.38;;
10823;SDS011;39116;59.332;18.034;2023-02-08T13:46:45;10.05;;;3.70;;
10823;SDS011;39116;59.332;18.034;2023-02-08T13:49:27;6.07;;;2.92;;
10823;SDS011;39116;59.332;18.034;2023-02-08T13:52:03;6.13;;;2.92;;
10823;SDS011;39116;59.332;18.034;2023-02-08T13:54:25;5.47;;;2.97;;
10823;SDS011;39116;59.332;18.034;2023-02-08T13:56:47;8.38;;;2.95;;
10823;SDS011;39116;59.332;18.034;2023-02-08T14:04:56;7.10;;;3.00;;
10823;SDS011;39116;59.332;18.034;2023-02-08T14:07:39;6.07;;;2.85;;
10823;SDS011;39116;59.332;18.034;2023-02-08T14:10:05;5.75;;;3.63;;
10823;SDS011;39116;59.332;18.034;2023-02-08T14:12:38;5.68;;;3.00;;
10823;SDS011;39116;59.332;18.034;2023-02-08T14:15:05;9.35;;;3.50;;
10823;SDS011;39116;59.332;18.034;2023-02-08T14:17:44;5.95;;;2.92;;
10823;SDS011;39116;59.332;18.034;2023-02-08T14:20:16;5.07;;;2.80;;
10823;SDS011;39116;59.332;18.034;2023-02-08T14:22:47;5.13;;;2.83;;
10823;SDS011;39116;59.332;18.034;2023-02-08T14:25:15;6.95;;;3.30;;
10823;SDS011;39116;59.332;18.034;2023-02-08T14:27:40;7.28;;;3.38;;
10823;SDS011;39116;59.332;18.034;2023-02-08T14:30:19;4.93;;;3.13;;
10823;SDS011;39116;59.332;18.034;2023-02-08T14:32:44;7.00;;;3.42;;
10823;SDS011;39116;59.332;18.034;2023-02-08T14:35:08;6.90;;;4.03;;
10823;SDS011;39116;59.332;18.034;2023-02-08T14:37:42;5.93;;;3.80;;